Time;durP1;ratioP1;P1;durP2;ratioP2;P2;SDS_P1;SDS_P2;PMS_P1;PMS_P2;Temp;Humidity;BMP_temperature;BMP_pressure;BME280_temperature;BME280_humidity;BME280_pressure;Samples;Min_cycle;Max_cycle;Signal;HPM_P1;HPM_P2
2023/08/30 07:12:49;;;;;;;2.60;1.20;;;14.80;99.90;;;;;;4959506;23;20256;-72
2023/08/30 07:15:17;;;;;;;2.23;1.33;;;14.90;99.90;;;;;;4951486;28;20578;-72
2023/08/30 07:17:44;;;;;;;1.50;0.97;;;14.80;99.90;;;;;;4956773;28;20208;-71
2023/08/30 07:20:11;;;;;;;2.87;1.20;;;14.80;99.90;;;;;;4957021;28;20294;-74
2023/08/30 07:22:38;;;;;;;1.93;0.90;;;14.80;99.90;;;;;;4956476;28;20689;-73
2023/08/30 07:25:06;;;;;;;2.47;1.30;;;14.80;99.90;;;;;;4956669;28;20295;-73
2023/08/30 07:27:33;;;;;;;2.33;0.87;;;14.80;99.90;;;;;;4956406;28;20681;-70
2023/08/30 07:30:02;;;;;;;2.63;1.47;;;14.90;99.90;;;;;;4956474;28;20670;-73
2023/08/30 07:32:30;;;;;;;1.30;0.87;;;15.00;99.90;;;;;;4956108;28;20235;-72
2023/08/30 07:34:57;;;;;;;2.37;1.20;;;15.00;99.90;;;;;;4956330;28;20232;-72
2023/08/30 07:37:24;;;;;;;1.20;0.90;;;15.10;99.90;;;;;;4956322;28;20730;-70
2023/08/30 07:39:52;;;;;;;1.63;1.00;;;15.00;99.90;;;;;;4956082;28;20263;-73
2023/08/30 07:42:19;;;;;;;3.57;1.10;;;15.10;99.90;;;;;;4955589;28;20650;-73
2023/08/30 07:44:46;;;;;;;1.97;1.00;;;15.10;99.90;;;;;;4956660;28;20232;-73
2023/08/30 07:47:14;;;;;;;1.97;1.07;;;15.10;99.90;;;;;;4956010;28;20295;-70
2023/08/30 07:49:42;;;;;;;2.13;0.77;;;15.10;99.90;;;;;;4956253;28;20318;-73
2023/08/30 07:52:10;;;;;;;2.67;1.07;;;15.10;99.90;;;;;;4955593;28;20284;-72
2023/08/30 07:54:38;;;;;;;2.00;0.80;;;15.20;99.90;;;;;;4955718;28;20204;-72
2023/08/30 07:57:05;;;;;;;1.70;1.00;;;15.30;99.90;;;;;;4956364;28;20294;-72
2023/08/30 07:59:34;;;;;;;0.97;0.70;;;15.20;99.90;;;;;;4955993;28;20314;-71
2023/08/30 08:02:01;;;;;;;1.50;0.70;;;15.10;99.90;;;;;;4955708;28;20212;-72
2023/08/30 08:04:30;;;;;;;2.27;0.80;;;15.20;99.90;;;;;;4955681;28;20287;-73
2023/08/30 08:06:56;;;;;;;1.50;1.10;;;15.20;99.90;;;;;;4955645;28;20247;-73
2023/08/30 08:09:23;;;;;;;0.97;0.70;;;15.10;99.90;;;;;;4955428;28;20762;-74
2023/08/30 08:11:51;;;;;;;2.80;0.70;;;15.20;99.90;;;;;;4955441;28;20670;-72
2023/08/30 08:14:18;;;;;;;1.23;0.73;;;15.30;99.90;;;;;;4955329;28;20221;-73
2023/08/30 08:16:44;;;;;;;0.80;0.60;;;15.40;99.90;;;;;;4955748;28;20383;-72
2023/08/30 08:19:12;;;;;;;2.27;0.93;;;15.40;99.90;;;;;;4955251;28;20315;-75
2023/08/30 08:21:40;;;;;;;0.93;0.60;;;15.30;99.90;;;;;;4950385;28;20212;-71
2023/08/30 08:24:08;;;;;;;1.97;0.90;;;15.30;99.90;;;;;;4953348;28;20232;-72
2023/08/30 08:26:35;;;;;;;1.37;0.70;;;15.40;99.90;;;;;;4953567;28;20255;-72
2023/08/30 08:29:03;;;;;;;1.50;0.90;;;15.40;99.90;;;;;;4952998;28;20658;-69
2023/08/30 08:31:30;;;;;;;1.30;0.80;;;15.50;99.90;;;;;;4955100;28;20353;-71
2023/08/30 08:34:09;;;;;;;1.40;0.70;;;15.70;99.90;;;;;;4955685;29;20239;-70
2023/08/30 08:36:36;;;;;;;1.30;0.80;;;15.80;99.90;;;;;;4955682;28;20603;-70
2023/08/30 08:39:05;;;;;;;1.10;0.80;;;15.80;99.90;;;;;;4955741;29;20266;-70
2023/08/30 08:41:36;;;;;;;2.03;1.00;;;15.80;99.90;;;;;;4955303;28;20215;-71
2023/08/30 08:44:05;;;;;;;1.70;0.87;;;15.80;99.90;;;;;;4955262;29;20235;-69
2023/08/30 08:46:33;;;;;;;1.30;0.80;;;15.90;99.90;;;;;;4955003;28;20298;-70
2023/08/30 08:49:03;;;;;;;1.80;0.80;;;16.00;99.90;;;;;;4955194;29;20271;-72
2023/08/30 08:51:30;;;;;;;1.27;0.80;;;16.10;99.90;;;;;;4955466;29;20227;-71
2023/08/30 08:54:03;;;;;;;1.63;1.00;;;16.20;99.90;;;;;;4955452;29;20215;-70
2023/08/30 08:56:32;;;;;;;1.93;1.10;;;16.30;99.90;;;;;;4955471;29;20627;-70
2023/08/30 08:58:59;;;;;;;1.77;1.00;;;16.30;99.90;;;;;;4954980;29;20624;-70
2023/08/30 09:01:27;;;;;;;1.80;1.10;;;16.40;99.90;;;;;;4955067;28;20670;-69
2023/08/30 09:03:54;;;;;;;2.17;1.13;;;16.50;99.90;;;;;;4955290;28;20641;-71
2023/08/30 09:06:22;;;;;;;2.43;1.37;;;16.60;99.90;;;;;;4955559;28;20243;-69
2023/08/30 09:08:49;;;;;;;2.73;1.30;;;16.70;99.90;;;;;;4955002;29;20310;-69
2023/08/30 09:11:16;;;;;;;1.73;1.03;;;16.80;99.90;;;;;;4954725;28;20302;-69
2023/08/30 09:13:45;;;;;;;2.17;1.37;;;16.90;99.90;;;;;;4954671;29;20687;-72
2023/08/30 09:16:15;;;;;;;2.13;1.30;;;17.10;99.90;;;;;;4955351;28;20240;-70
2023/08/30 09:18:42;;;;;;;2.20;1.33;;;17.30;99.90;;;;;;4954780;29;20642;-73
2023/08/30 09:21:09;;;;;;;2.43;1.30;;;17.40;99.90;;;;;;4954954;28;20240;-69
2023/08/30 09:23:37;;;;;;;3.57;1.37;;;17.40;99.90;;;;;;4955014;28;20251;-72
2023/08/30 09:26:04;;;;;;;1.60;1.25;;;17.50;99.90;;;;;;4955125;28;20287;-72
2023/08/30 09:28:31;;;;;;;2.93;1.40;;;17.60;99.90;;;;;;4954807;28;20263;-72
2023/08/30 09:31:00;;;;;;;2.53;1.37;;;17.80;99.90;;;;;;4954663;28;20717;-71
2023/08/30 09:33:34;;;;;;;2.15;1.38;;;17.90;99.90;;;;;;4954318;28;20246;-71
2023/08/30 09:36:01;;;;;;;2.92;1.90;;;18.00;99.90;;;;;;4954815;28;20262;-69
2023/08/30 09:38:28;;;;;;;2.30;1.70;;;18.10;99.90;;;;;;4954756;28;20318;-70
2023/08/30 09:41:04;;;;;;;3.38;1.73;;;18.20;99.90;;;;;;4954531;29;20298;-71
2023/08/30 09:43:32;;;;;;;2.08;1.55;;;18.20;99.90;;;;;;4954392;28;20212;-70
2023/08/30 09:46:04;;;;;;;4.63;1.50;;;18.30;99.90;;;;;;4955010;28;20250;-70
2023/08/30 09:48:31;;;;;;;3.00;1.67;;;18.20;99.90;;;;;;4955221;28;20238;-70
2023/08/30 09:51:00;;;;;;;2.50;1.52;;;18.20;99.90;;;;;;4954739;29;20254;-72
2023/08/30 09:53:30;;;;;;;3.97;1.70;;;18.20;99.90;;;;;;4954656;29;20238;-72
2023/08/30 09:55:59;;;;;;;1.83;1.40;;;18.20;99.90;;;;;;4954844;29;20239;-70
2023/08/30 09:58:28;;;;;;;3.92;2.15;;;18.10;99.90;;;;;;4954407;28;20228;-69
2023/08/30 10:00:55;;;;;;;4.43;1.73;;;18.30;99.90;;;;;;4954366;28;20745;-70
2023/08/30 10:03:24;;;;;;;2.05;1.70;;;18.30;99.90;;;;;;4954529;29;20303;-70
2023/08/30 10:05:52;;;;;;;2.43;1.80;;;18.20;99.90;;;;;;4954653;29;20240;-70
2023/08/30 10:08:21;;;;;;;3.10;1.70;;;18.10;99.90;;;;;;4954595;29;20315;-70
2023/08/30 10:10:48;;;;;;;3.83;1.77;;;18.10;99.90;;;;;;4954646;28;20258;-70
2023/08/30 10:13:16;;;;;;;2.47;1.60;;;17.90;99.90;;;;;;4954392;29;20669;-71
2023/08/30 10:15:49;;;;;;;2.80;1.70;;;17.80;99.90;;;;;;4954408;29;20656;-70
2023/08/30 10:18:21;;;;;;;2.70;1.75;;;17.70;99.90;;;;;;4954276;28;20267;-70
2023/08/30 10:20:50;;;;;;;2.03;1.38;;;17.60;99.90;;;;;;4954581;28;20659;-70
2023/08/30 10:23:19;;;;;;;3.22;1.73;;;17.60;99.90;;;;;;4954721;29;20294;-70
2023/08/30 10:25:47;;;;;;;4.67;2.23;;;17.50;99.90;;;;;;4954534;28;20295;-69
2023/08/30 10:28:14;;;;;;;3.50;2.17;;;17.40;99.90;;;;;;4954279;28;20270;-70
2023/08/30 10:30:42;;;;;;;3.53;1.97;;;17.40;99.90;;;;;;4954300;29;20246;-70
2023/08/30 10:33:14;;;;;;;3.07;1.60;;;17.30;99.90;;;;;;4954097;29;20327;-69
2023/08/30 10:35:51;;;;;;;3.53;2.20;;;17.20;99.90;;;;;;4954434;29;20604;-70
2023/08/30 10:38:26;;;;;;;2.67;1.77;;;17.20;99.90;;;;;;4954498;28;20228;-70
2023/08/30 10:40:53;;;;;;;2.78;1.70;;;17.40;99.90;;;;;;4954151;29;20689;-69
2023/08/30 10:43:31;;;;;;;3.22;2.90;;;17.70;99.90;;;;;;4955238;28;20248;-71
2023/08/30 10:46:02;;;;;;;3.22;2.00;;;17.90;99.90;;;;;;4957623;29;20706;-69
2023/08/30 10:48:36;;;;;;;2.95;1.88;;;18.10;99.90;;;;;;4957644;28;20319;-70
2023/08/30 10:51:07;;;;;;;2.47;1.85;;;18.30;99.90;;;;;;4957187;28;20216;-70
2023/08/30 10:53:34;;;;;;;1.98;1.70;;;18.60;99.90;;;;;;4957266;28;20741;-69
2023/08/30 10:56:08;;;;;;;2.67;1.60;;;18.90;99.90;;;;;;4956992;29;20299;-71
2023/08/30 10:58:41;;;;;;;3.45;1.65;;;19.10;99.90;;;;;;4957048;28;20315;-69
2023/08/30 11:01:11;;;;;;;3.03;1.88;;;19.30;99.90;;;;;;4957137;28;20599;-69
2023/08/30 11:03:39;;;;;;;2.97;1.83;;;19.40;99.90;;;;;;4957458;29;20214;-68
2023/08/30 11:06:07;;;;;;;2.50;1.88;;;19.50;99.90;;;;;;4957256;28;20332;-70
2023/08/30 11:08:35;;;;;;;3.28;1.85;;;19.70;99.90;;;;;;4957020;29;20311;-69
2023/08/30 11:11:05;;;;;;;3.42;1.83;;;20.00;99.90;;;;;;4952801;29;20232;-72
2023/08/30 11:13:32;;;;;;;5.45;2.13;;;20.00;99.90;;;;;;4937348;29;20239;-69
2023/08/30 11:16:03;;;;;;;3.05;1.83;;;20.20;99.90;;;;;;4937855;29;20236;-69
2023/08/30 11:18:30;;;;;;;1.95;1.60;;;20.50;99.90;;;;;;4938091;29;20220;-70
2023/08/30 11:21:01;;;;;;;2.88;1.63;;;20.70;99.90;;;;;;4937513;29;20296;-68
2023/08/30 11:23:30;;;;;;;1.77;1.48;;;20.60;99.90;;;;;;4937435;29;20300;-69
2023/08/30 11:25:57;;;;;;;1.98;1.42;;;20.50;99.90;;;;;;4937716;29;20670;-69
2023/08/30 11:28:24;;;;;;;2.30;1.73;;;20.40;99.90;;;;;;4937208;29;20264;-69
2023/08/30 11:30:52;;;;;;;2.65;1.45;;;20.60;99.90;;;;;;4937677;29;20209;-70
2023/08/30 11:33:19;;;;;;;4.53;2.30;;;20.70;99.90;;;;;;4937610;29;20328;-69
2023/08/30 11:35:48;;;;;;;3.17;1.70;;;20.70;99.90;;;;;;4937171;29;20575;-69
2023/08/30 11:38:15;;;;;;;2.78;1.63;;;20.70;99.90;;;;;;4937302;29;20261;-69
2023/08/30 11:40:43;;;;;;;4.28;2.28;;;20.90;99.90;;;;;;4937420;29;20637;-68
2023/08/30 11:43:11;;;;;;;4.03;1.65;;;21.10;99.90;;;;;;4937531;29;20300;-69
2023/08/30 11:45:38;;;;;;;3.03;1.90;;;21.10;99.90;;;;;;4937473;29;20244;-69
2023/08/30 11:48:06;;;;;;;2.38;1.73;;;21.20;99.90;;;;;;4937367;29;20664;-71
2023/08/30 11:50:33;;;;;;;2.97;1.65;;;21.20;99.90;;;;;;4942917;28;20263;-72
2023/08/30 11:53:01;;;;;;;2.50;1.63;;;21.50;99.90;;;;;;4953147;28;20267;-69
2023/08/30 11:55:28;;;;;;;2.90;1.77;;;21.20;99.90;;;;;;4953610;28;20212;-68
2023/08/30 11:57:56;;;;;;;2.63;1.40;;;21.20;99.90;;;;;;4958223;28;20263;-70
2023/08/30 12:00:24;;;;;;;2.42;1.20;;;20.90;99.90;;;;;;4956033;28;20231;-70
2023/08/30 12:02:51;;;;;;;1.88;1.08;;;20.80;99.90;;;;;;4955616;28;20641;-69
2023/08/30 12:05:18;;;;;;;3.22;1.00;;;20.60;99.90;;;;;;4956306;28;20231;-69
2023/08/30 12:07:47;;;;;;;3.20;0.95;;;20.50;99.90;;;;;;4954444;28;20208;-68
2023/08/30 12:10:18;;;;;;;3.75;0.95;;;20.60;99.90;;;;;;4955852;28;20204;-68
2023/08/30 12:12:46;;;;;;;1.98;0.98;;;20.50;99.90;;;;;;4955155;28;20270;-68
2023/08/30 12:15:15;;;;;;;2.88;0.70;;;20.40;99.90;;;;;;4955066;29;20242;-69
2023/08/30 12:17:42;;;;;;;4.40;0.90;;;20.00;99.90;;;;;;4952614;28;20292;-69
2023/08/30 12:20:17;;;;;;;2.90;0.88;;;20.10;99.90;;;;;;4952639;29;20596;-69
2023/08/30 12:22:44;;;;;;;1.45;0.85;;;20.10;99.90;;;;;;4955484;29;20224;-69
2023/08/30 12:25:19;;;;;;;3.03;0.82;;;20.10;99.90;;;;;;4955485;29;20647;-69
2023/08/30 12:27:46;;;;;;;2.00;0.93;;;20.20;99.90;;;;;;4949828;28;20705;-68
2023/08/30 12:30:16;;;;;;;2.08;0.77;;;20.30;99.90;;;;;;4954673;29;20390;-69
2023/08/30 12:32:43;;;;;;;2.00;0.70;;;20.40;99.90;;;;;;4955134;29;20228;-68
2023/08/30 12:35:10;;;;;;;1.52;0.70;;;20.50;99.90;;;;;;4954892;29;20671;-69
2023/08/30 12:37:37;;;;;;;2.13;0.50;;;20.50;99.90;;;;;;4940509;29;20252;-69
2023/08/30 12:40:05;;;;;;;3.33;0.90;;;20.50;99.90;;;;;;4934841;29;20296;-70
2023/08/30 12:42:33;;;;;;;2.85;0.68;;;20.70;99.90;;;;;;4934338;29;20212;-71
2023/08/30 12:45:00;;;;;;;3.90;1.05;;;20.70;99.90;;;;;;4946067;29;20227;-71
2023/08/30 12:47:29;;;;;;;2.10;0.60;;;20.50;99.90;;;;;;4953980;28;20595;-71
2023/08/30 12:49:55;;;;;;;4.70;0.80;;;20.40;99.90;;;;;;4954573;28;20263;-71
2023/08/30 12:52:22;;;;;;;3.33;0.90;;;20.60;99.90;;;;;;4954660;29;20247;-71
2023/08/30 12:54:51;;;;;;;2.28;0.80;;;20.60;99.90;;;;;;4945329;28;20245;-70
2023/08/30 12:57:18;;;;;;;2.28;0.80;;;20.60;99.90;;;;;;4935470;29;20208;-70
2023/08/30 12:59:45;;;;;;;5.05;1.00;;;20.70;99.90;;;;;;4932773;29;20275;-70
2023/08/30 13:02:12;;;;;;;3.08;0.80;;;20.80;99.90;;;;;;4951640;29;20272;-71
2023/08/30 13:04:40;;;;;;;2.10;0.68;;;20.80;99.90;;;;;;4953383;28;20687;-71
2023/08/30 13:07:07;;;;;;;2.10;0.63;;;20.60;99.90;;;;;;4954056;28;20271;-71
2023/08/30 13:09:34;;;;;;;4.60;0.80;;;20.60;99.90;;;;;;4954547;28;20239;-70
2023/08/30 13:12:01;;;;;;;2.78;0.80;;;20.50;99.90;;;;;;4942801;29;20253;-69
2023/08/30 13:14:28;;;;;;;2.65;0.82;;;20.40;99.90;;;;;;4945653;28;20322;-70
2023/08/30 13:16:55;;;;;;;2.10;0.93;;;20.30;99.90;;;;;;4940021;29;20244;-70
2023/08/30 13:19:22;;;;;;;2.08;0.73;;;20.50;99.90;;;;;;4941563;28;20295;-70
2023/08/30 13:21:50;;;;;;;1.58;0.70;;;20.50;99.90;;;;;;4949215;29;20636;-69
2023/08/30 13:24:17;;;;;;;2.50;0.60;;;20.50;99.90;;;;;;4943158;29;20259;-69
2023/08/30 13:26:44;;;;;;;2.10;0.70;;;20.40;99.90;;;;;;4953522;28;20246;-70
2023/08/30 13:29:11;;;;;;;4.32;1.17;;;20.50;99.90;;;;;;4953696;28;20220;-70
2023/08/30 13:31:38;;;;;;;2.47;0.60;;;20.70;99.90;;;;;;4941360;29;20205;-70
2023/08/30 13:34:05;;;;;;;2.08;0.63;;;20.70;99.90;;;;;;4943295;29;20330;-70
2023/08/30 13:36:32;;;;;;;0.90;0.50;;;20.80;99.90;;;;;;4953642;28;20239;-70
2023/08/30 13:39:00;;;;;;;2.75;0.93;;;20.70;99.90;;;;;;4947780;28;20651;-70
2023/08/30 13:41:27;;;;;;;3.60;0.82;;;20.60;99.90;;;;;;4951351;29;20212;-70
2023/08/30 13:43:54;;;;;;;3.60;0.90;;;20.40;99.90;;;;;;4941398;29;20238;-70
2023/08/30 13:46:21;;;;;;;4.57;0.60;;;20.40;99.90;;;;;;4941960;29;20239;-70
2023/08/30 13:48:48;;;;;;;1.38;0.50;;;20.50;99.90;;;;;;4952757;29;20263;-70
2023/08/30 13:51:15;;;;;;;2.05;0.65;;;20.70;99.90;;;;;;4952734;29;20203;-70
2023/08/30 13:53:42;;;;;;;2.35;0.40;;;20.40;99.90;;;;;;4953779;28;20270;-70
2023/08/30 13:56:10;;;;;;;3.28;0.57;;;20.40;99.90;;;;;;4954003;29;20254;-70
2023/08/30 13:58:38;;;;;;;0.93;0.40;;;20.30;99.90;;;;;;4953821;28;20259;-70
2023/08/30 14:01:05;;;;;;;1.40;0.50;;;20.20;99.90;;;;;;4954126;28;20212;-70
2023/08/30 14:03:32;;;;;;;0.95;0.55;;;20.20;99.90;;;;;;4952811;28;20200;-70
2023/08/30 14:05:59;;;;;;;2.30;0.55;;;20.20;99.90;;;;;;4950446;29;20200;-70
2023/08/30 14:08:26;;;;;;;2.80;0.60;;;20.30;99.90;;;;;;4953433;29;20247;-70
2023/08/30 14:10:54;;;;;;;2.92;0.73;;;20.30;99.90;;;;;;4953658;28;20286;-70
2023/08/30 14:13:23;;;;;;;3.42;0.70;;;20.40;99.90;;;;;;4952926;29;20287;-70
2023/08/30 14:15:50;;;;;;;2.28;0.60;;;20.30;99.90;;;;;;4953792;28;20239;-70
2023/08/30 14:18:17;;;;;;;2.03;0.70;;;20.40;99.90;;;;;;4954829;28;20311;-69
2023/08/30 14:20:44;;;;;;;1.25;0.50;;;20.60;99.90;;;;;;4957792;28;20204;-69
2023/08/30 14:23:11;;;;;;;2.35;0.82;;;20.40;99.90;;;;;;4946605;28;20240;-70
2023/08/30 14:25:38;;;;;;;1.35;0.60;;;20.40;99.90;;;;;;4938622;29;20579;-70
2023/08/30 14:28:06;;;;;;;2.42;0.93;;;20.40;99.90;;;;;;4938406;29;20659;-70
2023/08/30 14:30:34;;;;;;;1.83;0.50;;;20.40;99.90;;;;;;4938459;29;20638;-70
2023/08/30 14:33:01;;;;;;;1.35;0.60;;;20.50;99.90;;;;;;4938588;29;20208;-71
2023/08/30 14:35:29;;;;;;;2.70;0.85;;;20.40;99.90;;;;;;4938488;29;20252;-70
2023/08/30 14:37:56;;;;;;;1.52;0.60;;;20.30;99.90;;;;;;4937957;29;20260;-69
2023/08/30 14:40:23;;;;;;;1.38;0.50;;;20.10;99.90;;;;;;4938452;29;20301;-69
2023/08/30 14:42:49;;;;;;;1.73;0.57;;;20.10;99.90;;;;;;4938314;29;20255;-70
2023/08/30 14:45:17;;;;;;;2.25;0.50;;;20.00;99.90;;;;;;4938230;29;20259;-70
2023/08/30 14:47:45;;;;;;;0.88;0.40;;;19.90;99.90;;;;;;4938190;29;20205;-70
2023/08/30 14:50:12;;;;;;;0.77;0.50;;;20.00;99.90;;;;;;4937898;29;20252;-70
2023/08/30 14:52:39;;;;;;;1.23;0.50;;;19.90;99.90;;;;;;4940055;29;20240;-69
2023/08/30 14:55:07;;;;;;;0.98;0.40;;;19.80;99.90;;;;;;4957186;29;20270;-70
2023/08/30 14:57:34;;;;;;;1.63;0.55;;;19.80;99.90;;;;;;4957029;28;20239;-69
2023/08/30 15:00:01;;;;;;;2.08;0.50;;;19.80;99.90;;;;;;4957222;28;20714;-69
2023/08/30 15:02:28;;;;;;;0.85;0.40;;;20.00;99.90;;;;;;4957407;29;20216;-69
2023/08/30 15:04:56;;;;;;;1.88;0.40;;;20.10;99.90;;;;;;4957336;29;20235;-69
2023/08/30 15:07:23;;;;;;;0.70;0.45;;;20.10;99.90;;;;;;4957231;28;20244;-69
2023/08/30 15:09:50;;;;;;;1.83;0.40;;;20.00;99.90;;;;;;4937930;29;20640;-69
2023/08/30 15:12:17;;;;;;;1.50;0.40;;;20.10;99.90;;;;;;4937169;29;20220;-69
2023/08/30 15:14:44;;;;;;;1.17;0.50;;;20.00;99.90;;;;;;4937075;29;20339;-69
2023/08/30 15:17:11;;;;;;;0.90;0.40;;;20.10;99.90;;;;;;4937469;29;20251;-70
2023/08/30 15:19:38;;;;;;;1.27;0.40;;;20.20;99.90;;;;;;4937757;29;20696;-69
2023/08/30 15:22:06;;;;;;;0.95;0.40;;;20.20;99.90;;;;;;4937784;29;20732;-69
2023/08/30 15:24:33;;;;;;;0.77;0.43;;;20.10;99.90;;;;;;4937118;29;20240;-70
2023/08/30 15:27:00;;;;;;;1.52;0.40;;;19.90;99.90;;;;;;4937320;29;20304;-69
2023/08/30 15:29:27;;;;;;;2.90;0.60;;;19.80;99.90;;;;;;4936207;29;20711;-69
2023/08/30 15:31:53;;;;;;;1.42;0.50;;;19.90;99.90;;;;;;4937605;29;20244;-70
2023/08/30 15:34:21;;;;;;;0.65;0.35;;;19.90;99.90;;;;;;4937395;29;20324;-69
2023/08/30 15:36:47;;;;;;;0.70;0.30;;;19.90;99.90;;;;;;4937322;29;20639;-70
2023/08/30 15:39:18;;;;;;;3.05;0.52;;;19.90;99.90;;;;;;4937365;29;20311;-70
2023/08/30 15:41:45;;;;;;;1.83;0.50;;;19.90;99.90;;;;;;4936933;29;20251;-69
2023/08/30 15:44:12;;;;;;;1.02;0.40;;;19.90;99.90;;;;;;4937228;29;20303;-70
2023/08/30 15:46:39;;;;;;;4.43;0.65;;;19.90;99.90;;;;;;4937532;29;20300;-70
2023/08/30 15:49:06;;;;;;;1.88;0.57;;;19.90;99.90;;;;;;4937372;29;20233;-69
2023/08/30 15:51:32;;;;;;;1.77;0.40;;;19.90;99.90;;;;;;4937166;29;20299;-69
2023/08/30 15:53:58;;;;;;;3.05;0.60;;;19.80;99.90;;;;;;4936843;29;20268;-70
2023/08/30 15:56:27;;;;;;;0.90;0.40;;;19.70;99.90;;;;;;4937155;29;20240;-71
2023/08/30 15:58:54;;;;;;;0.55;0.40;;;19.80;99.90;;;;;;4936817;29;20334;-71
2023/08/30 16:01:21;;;;;;;3.50;0.50;;;19.80;99.90;;;;;;4940666;28;20663;-70
2023/08/30 16:03:48;;;;;;;4.25;0.40;;;19.90;99.90;;;;;;4946470;28;20252;-70
2023/08/30 16:06:15;;;;;;;2.03;0.50;;;19.80;99.90;;;;;;4944806;28;20248;-70
2023/08/30 16:08:42;;;;;;;0.50;0.30;;;19.60;99.90;;;;;;4944071;28;20307;-70
2023/08/30 16:11:09;;;;;;;2.30;0.40;;;19.50;99.90;;;;;;4946200;28;20625;-71
2023/08/30 16:13:38;;;;;;;1.73;0.43;;;19.40;99.90;;;;;;4947413;28;20255;-71
2023/08/30 16:16:05;;;;;;;2.10;0.50;;;19.40;99.90;;;;;;4937303;28;20244;-71
2023/08/30 16:18:32;;;;;;;2.50;0.88;;;19.40;99.90;;;;;;4946542;28;20282;-70
2023/08/30 16:20:59;;;;;;;1.50;0.35;;;19.30;99.90;;;;;;4940775;28;20659;-70
2023/08/30 16:23:26;;;;;;;1.25;0.43;;;19.10;99.90;;;;;;4947938;28;20233;-71
2023/08/30 16:25:57;;;;;;;2.10;0.50;;;19.10;99.90;;;;;;4954754;28;20631;-70
2023/08/30 16:28:24;;;;;;;1.20;0.50;;;19.00;99.90;;;;;;4948808;28;20651;-70
2023/08/30 16:30:59;;;;;;;0.77;0.38;;;18.90;99.90;;;;;;4954332;28;20270;-70
2023/08/30 16:33:26;;;;;;;0.40;0.30;;;18.90;99.90;;;;;;4944565;29;20225;-70
2023/08/30 16:35:53;;;;;;;1.05;0.45;;;18.90;99.90;;;;;;4944526;28;20263;-70
2023/08/30 16:38:19;;;;;;;1.42;0.50;;;18.80;99.90;;;;;;4940504;28;20304;-70
2023/08/30 16:40:46;;;;;;;0.93;0.40;;;18.70;99.90;;;;;;4943768;28;20264;-72
2023/08/30 16:43:13;;;;;;;1.63;0.75;;;18.80;99.90;;;;;;4942630;28;20246;-71
2023/08/30 16:45:41;;;;;;;0.82;0.40;;;18.90;99.90;;;;;;4954728;29;20298;-70
2023/08/30 16:48:10;;;;;;;0.65;0.45;;;18.90;99.90;;;;;;4954268;28;20275;-70
2023/08/30 16:50:37;;;;;;;1.30;0.60;;;18.90;99.90;;;;;;4955161;29;20231;-70
2023/08/30 16:53:06;;;;;;;1.70;0.55;;;19.00;99.90;;;;;;4954595;29;20299;-69
2023/08/30 16:55:33;;;;;;;0.95;0.30;;;18.90;99.90;;;;;;4953900;29;20239;-69
2023/08/30 16:58:00;;;;;;;0.82;0.43;;;19.00;99.90;;;;;;4954634;29;20311;-69
2023/08/30 17:00:27;;;;;;;1.60;0.50;;;19.10;99.90;;;;;;4954546;29;20239;-70
2023/08/30 17:02:54;;;;;;;0.63;0.30;;;19.20;99.90;;;;;;4954582;28;20250;-71
2023/08/30 17:05:22;;;;;;;3.28;0.70;;;19.10;99.90;;;;;;4955100;29;20212;-71
2023/08/30 17:07:52;;;;;;;1.95;0.50;;;19.10;99.90;;;;;;4955281;29;20299;-69
2023/08/30 17:10:19;;;;;;;0.80;0.50;;;19.00;99.90;;;;;;4955176;28;20243;-69
2023/08/30 17:12:46;;;;;;;2.78;0.43;;;19.00;99.90;;;;;;4954755;29;20260;-70
2023/08/30 17:15:13;;;;;;;0.80;0.40;;;18.80;99.90;;;;;;4955042;29;20327;-71
2023/08/30 17:17:40;;;;;;;3.85;0.57;;;18.70;99.90;;;;;;4954338;29;20246;-70
2023/08/30 17:20:09;;;;;;;1.27;0.57;;;18.70;99.90;;;;;;4954726;29;20295;-70
2023/08/30 17:22:37;;;;;;;1.52;0.45;;;18.60;99.90;;;;;;4955057;28;20207;-70
2023/08/30 17:25:04;;;;;;;1.27;0.50;;;18.50;99.90;;;;;;4954852;29;20250;-70
2023/08/30 17:27:31;;;;;;;2.33;0.50;;;18.30;99.90;;;;;;4954178;28;20215;-71
2023/08/30 17:29:58;;;;;;;1.92;0.60;;;18.10;99.90;;;;;;4954528;29;20665;-70
2023/08/30 17:32:25;;;;;;;1.20;0.40;;;18.10;99.90;;;;;;4954573;29;20243;-70
2023/08/30 17:34:52;;;;;;;1.75;0.30;;;18.00;99.90;;;;;;4954334;28;20327;-71
2023/08/30 17:37:19;;;;;;;0.70;0.40;;;17.90;99.90;;;;;;4954053;29;20685;-70
2023/08/30 17:39:47;;;;;;;2.70;0.43;;;17.90;99.90;;;;;;4954182;28;20790;-70
2023/08/30 17:42:14;;;;;;;1.40;0.43;;;17.80;99.90;;;;;;4954025;28;20240;-69
2023/08/30 17:44:41;;;;;;;1.05;0.40;;;17.70;99.90;;;;;;4954599;29;20250;-70
2023/08/30 17:47:09;;;;;;;1.70;0.60;;;17.70;99.90;;;;;;4954656;28;20208;-70
2023/08/30 17:49:35;;;;;;;1.07;0.33;;;17.70;99.90;;;;;;4954409;29;20224;-69
2023/08/30 17:52:03;;;;;;;1.40;0.35;;;17.70;99.90;;;;;;4954707;28;20623;-71
2023/08/30 17:54:32;;;;;;;1.23;0.50;;;17.80;99.90;;;;;;4957968;29;20319;-69
2023/08/30 17:57:00;;;;;;;1.73;0.55;;;17.90;99.90;;;;;;4958703;28;20208;-69
2023/08/30 17:59:27;;;;;;;2.70;0.47;;;17.80;99.90;;;;;;4958617;28;20556;-69
2023/08/30 18:01:54;;;;;;;1.92;0.40;;;17.80;99.90;;;;;;4958353;29;20381;-70
2023/08/30 18:04:21;;;;;;;0.80;0.50;;;17.80;99.90;;;;;;4958396;29;20240;-70
2023/08/30 18:06:48;;;;;;;0.82;0.57;;;17.80;99.90;;;;;;4958113;28;20207;-69
2023/08/30 18:09:15;;;;;;;2.90;0.50;;;17.60;99.90;;;;;;4957779;28;20262;-70
2023/08/30 18:11:41;;;;;;;0.95;0.55;;;17.50;99.90;;;;;;4958544;28;20244;-69
2023/08/30 18:14:10;;;;;;;1.08;0.47;;;17.50;99.90;;;;;;4957891;28;20294;-69
2023/08/30 18:16:37;;;;;;;1.25;0.60;;;17.40;99.90;;;;;;4957993;28;20694;-69
2023/08/30 18:19:04;;;;;;;2.00;0.93;;;17.30;99.90;;;;;;4957386;29;20802;-69
2023/08/30 18:21:34;;;;;;;1.83;0.70;;;17.30;99.90;;;;;;4957433;28;20216;-70
2023/08/30 18:24:16;;;;;;;1.52;0.60;;;17.10;99.90;;;;;;4957279;29;20212;-70
2023/08/30 18:26:45;;;;;;;1.97;0.90;;;17.10;99.90;;;;;;4957865;28;20290;-71
2023/08/30 18:29:13;;;;;;;1.83;0.50;;;17.00;99.90;;;;;;4957117;28;20626;-70
2023/08/30 18:31:40;;;;;;;1.23;0.80;;;16.90;99.90;;;;;;4956708;28;20533;-70
2023/08/30 18:34:07;;;;;;;4.10;0.77;;;16.70;99.90;;;;;;4957203;29;20232;-71
2023/08/30 18:36:34;;;;;;;1.83;0.40;;;16.70;99.90;;;;;;4957083;29;20243;-70
2023/08/30 18:39:02;;;;;;;1.00;0.60;;;16.60;99.90;;;;;;4957051;29;20267;-70
2023/08/30 18:41:28;;;;;;;2.33;0.60;;;16.60;99.90;;;;;;4956660;29;20215;-70
2023/08/30 18:43:55;;;;;;;1.90;0.50;;;16.50;99.90;;;;;;4957244;29;20240;-70
2023/08/30 18:46:24;;;;;;;2.37;0.77;;;16.50;99.90;;;;;;4957479;29;20303;-70
2023/08/30 18:48:51;;;;;;;2.67;0.80;;;16.40;99.90;;;;;;4956995;29;20707;-70
2023/08/30 18:51:19;;;;;;;2.17;0.70;;;16.40;99.90;;;;;;4957405;28;20208;-71
2023/08/30 18:53:46;;;;;;;1.20;0.60;;;16.40;99.90;;;;;;4957105;28;20562;-70
2023/08/30 18:56:14;;;;;;;1.00;0.57;;;16.20;99.90;;;;;;4957342;28;20272;-70
2023/08/30 18:58:42;;;;;;;2.90;0.70;;;16.20;99.90;;;;;;4956246;29;20224;-70
2023/08/30 19:01:10;;;;;;;1.47;0.70;;;16.10;99.90;;;;;;4956352;29;20240;-70
2023/08/30 19:03:39;;;;;;;1.40;0.70;;;16.10;99.90;;;;;;4956519;28;20295;-70
2023/08/30 19:06:07;;;;;;;1.53;1.00;;;16.00;99.90;;;;;;4956802;29;20216;-70
2023/08/30 19:08:34;;;;;;;1.27;0.60;;;16.00;99.90;;;;;;4957143;29;20232;-69
2023/08/30 19:11:01;;;;;;;1.43;0.77;;;15.90;99.90;;;;;;4956914;28;20287;-71
2023/08/30 19:13:28;;;;;;;1.37;0.80;;;15.80;99.90;;;;;;4956494;28;20219;-71
2023/08/30 19:15:56;;;;;;;3.87;0.80;;;15.70;99.90;;;;;;4956167;28;20659;-71
2023/08/30 19:18:23;;;;;;;3.07;1.10;;;15.60;99.90;;;;;;4956791;29;20260;-70
2023/08/30 19:20:57;;;;;;;0.97;0.63;;;15.60;99.90;;;;;;4956344;28;20214;-69
2023/08/30 19:23:24;;;;;;;3.23;0.83;;;15.50;99.90;;;;;;4956390;28;20212;-69
2023/08/30 19:25:53;;;;;;;1.83;1.10;;;15.50;99.90;;;;;;4956596;28;20303;-70
2023/08/30 19:28:20;;;;;;;1.40;0.77;;;15.50;99.90;;;;;;4956312;28;20330;-70
2023/08/30 19:30:47;;;;;;;1.30;0.90;;;15.50;99.90;;;;;;4956571;28;20248;-70
2023/08/30 19:33:14;;;;;;;1.50;0.80;;;15.60;99.90;;;;;;4956486;28;20228;-69
2023/08/30 19:35:41;;;;;;;1.83;0.90;;;15.50;99.90;;;;;;4956125;29;20738;-69
2023/08/30 19:38:09;;;;;;;2.90;0.90;;;15.50;99.90;;;;;;4951112;29;20287;-69
2023/08/30 19:40:36;;;;;;;1.70;0.80;;;15.70;99.90;;;;;;4950361;28;20455;-70
2023/08/30 19:43:03;;;;;;;1.43;0.80;;;15.70;99.90;;;;;;4940740;28;20291;-70
2023/08/30 19:45:30;;;;;;;1.23;0.80;;;15.70;99.90;;;;;;4945798;28;20308;-70
2023/08/30 19:47:57;;;;;;;2.80;0.90;;;15.80;99.90;;;;;;4948012;29;20319;-70
2023/08/30 19:50:24;;;;;;;3.00;1.00;;;15.80;99.90;;;;;;4940364;29;20256;-70
2023/08/30 19:52:51;;;;;;;2.03;0.97;;;15.80;99.90;;;;;;4943683;28;20250;-70
2023/08/30 19:55:19;;;;;;;3.37;0.97;;;15.90;99.90;;;;;;4947185;29;20274;-69
2023/08/30 19:57:47;;;;;;;2.30;1.00;;;16.00;99.90;;;;;;4947882;28;20268;-70
2023/08/30 20:00:15;;;;;;;5.10;1.20;;;15.80;99.90;;;;;;4944207;28;20537;-69
2023/08/30 20:02:42;;;;;;;1.50;1.20;;;15.80;99.90;;;;;;4940658;29;20386;-69